createdAt,value
2022-08-05T00:01:20.960Z,3.63
2022-08-05T00:04:14.112Z,3.95
2022-08-05T00:06:59.575Z,6.18
2022-08-05T00:09:45.396Z,5.05
2022-08-05T00:12:31.398Z,6.78
2022-08-05T00:15:54.082Z,6.18
2022-08-05T00:18:22.893Z,5.10
2022-08-05T00:21:09.295Z,3.70
2022-08-05T00:24:10.723Z,5.55
2022-08-05T00:29:45.084Z,4.43
2022-08-05T00:32:30.937Z,4.57
2022-08-05T00:35:17.035Z,3.15
2022-08-05T00:38:06.467Z,4.45
2022-08-05T00:40:57.144Z,5.45
2022-08-05T00:43:47.143Z,3.97
2022-08-05T00:46:42.610Z,3.90
2022-08-05T00:49:32.406Z,3.30
2022-08-05T00:52:28.222Z,3.45
2022-08-05T00:55:14.931Z,4.45
2022-08-05T00:58:01.021Z,3.20
2022-08-05T01:00:47.882Z,3.55
2022-08-05T01:03:37.929Z,4.53
2022-08-05T01:06:28.920Z,3.20
2022-08-05T01:09:20.047Z,5.75
2022-08-05T01:12:18.867Z,3.75
2022-08-05T01:15:36.275Z,2.90
2022-08-05T01:18:21.132Z,2.92
2022-08-05T01:21:38.107Z,2.60
2022-08-05T01:24:45.027Z,2.83
2022-08-05T01:27:55.042Z,6.20
2022-08-05T01:30:55.174Z,6.43
2022-08-05T01:34:00.956Z,9.75
2022-08-05T01:36:53.849Z,3.38
2022-08-05T01:39:47.543Z,2.85
2022-08-05T01:42:36.678Z,4.18
2022-08-05T01:45:24.985Z,6.30
2022-08-05T01:48:11.777Z,5.25
2022-08-05T01:51:00.124Z,5.65
2022-08-05T01:54:02.187Z,2.90
2022-08-05T01:58:10.630Z,5.13
2022-08-05T02:00:01.036Z,7.03
2022-08-05T02:02:58.083Z,5.75
2022-08-05T02:05:45.798Z,5.20
2022-08-05T02:08:40.865Z,6.18
2022-08-05T02:12:17.783Z,2.97
2022-08-05T02:15:19.562Z,6.47
2022-08-05T02:18:32.236Z,10.25
2022-08-05T02:21:31.775Z,5.65
2022-08-05T02:24:37.011Z,5.60
2022-08-05T02:27:30.226Z,3.05
2022-08-05T02:30:51.557Z,4.80
2022-08-05T02:33:45.103Z,8.40
2022-08-05T02:36:36.963Z,3.03
2022-08-05T02:39:25.393Z,4.05
2022-08-05T02:42:22.527Z,5.95
2022-08-05T02:45:16.465Z,4.75
2022-08-05T02:48:12.024Z,5.93
2022-08-05T02:51:01.083Z,5.88
2022-08-05T02:53:48.662Z,3.20
2022-08-05T02:56:43.551Z,3.25
2022-08-05T02:59:47.794Z,5.35
2022-08-05T03:02:44.302Z,2.50
2022-08-05T03:06:55.155Z,3.30
2022-08-05T03:08:42.743Z,2.88
2022-08-05T03:11:56.411Z,7.18
2022-08-05T03:14:35.497Z,2.40
2022-08-05T03:17:32.440Z,3.03
2022-08-05T03:20:27.217Z,4.90
2022-08-05T03:23:13.826Z,4.80
2022-08-05T03:26:04.761Z,3.08
2022-08-05T03:29:05.687Z,8.52
2022-08-05T03:32:00.455Z,3.70
2022-08-05T03:34:50.467Z,10.15
2022-08-05T03:37:44.689Z,3.55
2022-08-05T03:40:32.841Z,2.92
2022-08-05T03:44:09.598Z,4.20
2022-08-05T03:46:26.758Z,5.72
2022-08-05T03:49:15.922Z,3.50
2022-08-05T03:52:37.149Z,3.10
2022-08-05T03:56:05.809Z,3.45
2022-08-05T03:58:28.900Z,3.53
2022-08-05T04:01:20.734Z,5.53
2022-08-05T04:04:10.155Z,3.85
2022-08-05T04:06:58.020Z,3.75
2022-08-05T04:09:53.065Z,5.38
2022-08-05T04:15:24.722Z,3.60
2022-08-05T04:18:12.717Z,3.65
2022-08-05T04:21:07.754Z,3.58
2022-08-05T04:24:06.666Z,7.30
2022-08-05T04:26:52.675Z,4.80
2022-08-05T04:29:39.095Z,3.60
2022-08-05T04:32:31.008Z,3.05
2022-08-05T04:35:19.821Z,3.72
2022-08-05T04:38:06.901Z,6.70
2022-08-05T04:40:53.703Z,4.35
2022-08-05T04:43:46.639Z,3.38
2022-08-05T04:46:42.024Z,8.18
2022-08-05T04:49:38.499Z,5.20
2022-08-05T04:52:40.553Z,6.22
2022-08-05T04:56:14.429Z,4.00
2022-08-05T04:58:34.203Z,5.30
2022-08-05T05:02:06.139Z,5.60
2022-08-05T05:04:35.067Z,4.28
2022-08-05T05:07:29.765Z,7.47
2022-08-05T05:10:19.088Z,9.70
2022-08-05T05:13:06.009Z,7.40
2022-08-05T05:15:57.634Z,6.78
2022-08-05T05:19:36.501Z,4.60
2022-08-05T05:22:44.286Z,11.63
2022-08-05T05:25:41.077Z,5.35
2022-08-05T05:28:28.227Z,4.60
2022-08-05T05:31:18.531Z,7.88
2022-08-05T05:34:05.250Z,4.43
2022-08-05T05:36:51.769Z,4.57
2022-08-05T05:39:38.661Z,8.20
2022-08-05T05:42:28.820Z,11.18
2022-08-05T05:45:16.304Z,4.68
2022-08-05T05:48:06.371Z,7.75
2022-08-05T05:50:54.465Z,11.50
2022-08-05T05:53:54.310Z,4.15
2022-08-05T05:56:45.293Z,5.85
2022-08-05T05:59:33.407Z,6.63
2022-08-05T06:02:32.797Z,5.78
2022-08-05T06:05:23.741Z,8.35
2022-08-05T06:08:10.863Z,5.85
2022-08-05T06:10:56.872Z,5.03
2022-08-05T06:13:53.947Z,4.22
2022-08-05T06:16:39.998Z,6.10
2022-08-05T06:19:34.910Z,6.75
2022-08-05T06:22:35.095Z,6.65
2022-08-05T06:25:59.173Z,10.13
2022-08-05T06:28:27.422Z,4.30
2022-08-05T06:31:17.882Z,7.68
2022-08-05T06:34:09.145Z,4.85
2022-08-05T06:36:58.115Z,4.70
2022-08-05T06:39:44.465Z,6.57
2022-08-05T06:42:30.471Z,4.90
2022-08-05T06:45:21.176Z,5.65
2022-08-05T06:48:53.009Z,7.30
2022-08-05T06:51:30.756Z,4.70
2022-08-05T06:54:19.119Z,5.35
2022-08-05T06:57:14.055Z,3.85
2022-08-05T07:00:12.032Z,7.57
2022-08-05T07:02:59.514Z,5.50
2022-08-05T07:05:47.298Z,5.25
2022-08-05T07:08:33.561Z,6.35
2022-08-05T07:11:22.529Z,4.50
2022-08-05T07:14:32.244Z,5.70
2022-08-05T07:17:59.724Z,9.27
2022-08-05T07:20:37.199Z,5.18
2022-08-05T07:23:30.204Z,6.25
2022-08-05T07:26:22.608Z,4.63
2022-08-05T07:29:11.464Z,4.88
2022-08-05T07:31:59.748Z,7.13
2022-08-05T07:34:50.229Z,5.90
2022-08-05T07:37:44.701Z,4.80
2022-08-05T07:40:33.715Z,6.70
2022-08-05T07:43:21.453Z,8.27
2022-08-05T07:46:07.175Z,4.70
2022-08-05T07:49:14.233Z,4.50
2022-08-05T07:52:00.992Z,4.25
2022-08-05T07:54:49.340Z,4.18
2022-08-05T07:57:56.229Z,5.95
2022-08-05T08:00:42.639Z,6.95
2022-08-05T08:03:44.365Z,4.88
2022-08-05T08:06:32.770Z,4.75
2022-08-05T08:09:18.217Z,7.93
2022-08-05T08:12:19.967Z,5.90
2022-08-05T08:15:15.242Z,3.97
2022-08-05T08:18:01.864Z,6.43
2022-08-05T08:21:02.963Z,8.75
2022-08-05T08:24:01.502Z,5.82
2022-08-05T08:26:50.948Z,6.23
2022-08-05T08:30:04.159Z,3.40
2022-08-05T08:32:43.838Z,3.70
2022-08-05T08:35:35.007Z,3.53
2022-08-05T08:38:35.499Z,4.68
2022-08-05T08:41:26.136Z,4.93
2022-08-05T08:45:16.308Z,4.07
2022-08-05T08:48:05.879Z,4.65
2022-08-05T08:51:03.772Z,6.35
2022-08-05T08:53:54.731Z,4.95
2022-08-05T08:56:47.773Z,7.47
2022-08-05T08:59:36.561Z,6.70
2022-08-05T09:02:26.904Z,6.38
2022-08-05T09:05:16.359Z,6.43
2022-08-05T09:08:04.174Z,5.47
2022-08-05T09:10:51.870Z,5.28
2022-08-05T09:14:00.864Z,3.70
2022-08-05T09:16:48.972Z,4.07
2022-08-05T09:19:36.596Z,4.70
2022-08-05T09:23:05.525Z,5.55
2022-08-05T09:26:21.147Z,4.22
2022-08-05T09:29:09.175Z,6.07
2022-08-05T09:32:41.756Z,5.20
2022-08-05T09:35:26.612Z,5.63
2022-08-05T09:38:18.364Z,3.55
2022-08-05T09:41:16.092Z,4.53
2022-08-05T09:44:02.117Z,3.90
2022-08-05T09:46:51.644Z,5.18
2022-08-05T09:50:02.316Z,3.95
2022-08-05T09:52:57.680Z,5.47
2022-08-05T09:55:56.421Z,7.05
2022-08-05T09:59:06.182Z,6.18
2022-08-05T10:01:57.992Z,4.25
2022-08-05T10:04:45.486Z,7.05
2022-08-05T10:08:35.255Z,10.60
2022-08-05T10:11:15.042Z,5.47
2022-08-05T10:14:22.649Z,6.35
2022-08-05T10:17:37.875Z,3.83
2022-08-05T10:20:21.901Z,4.80
2022-08-05T10:23:34.062Z,6.50
2022-08-05T10:26:16.476Z,7.75
2022-08-05T10:29:02.885Z,3.60
2022-08-05T10:32:54.349Z,7.20
2022-08-05T10:35:01.079Z,4.30
2022-08-05T10:37:48.041Z,3.97
2022-08-05T10:40:43.479Z,5.05
2022-08-05T10:43:46.382Z,4.53
2022-08-05T10:46:46.046Z,6.20
2022-08-05T10:50:32.496Z,4.35
2022-08-05T10:53:06.929Z,5.72
2022-08-05T10:56:21.058Z,4.43
2022-08-05T11:00:01.299Z,4.20
2022-08-05T11:02:38.158Z,3.92
2022-08-05T11:05:29.001Z,8.60
2022-08-05T11:08:33.932Z,5.20
2022-08-05T11:11:42.066Z,6.53
2022-08-05T11:17:59.261Z,7.40
2022-08-05T11:20:51.419Z,6.10
2022-08-05T11:24:05.689Z,8.48
2022-08-05T11:27:51.491Z,4.30
2022-08-05T11:30:58.326Z,4.25
2022-08-05T11:33:47.910Z,7.18
2022-08-05T11:36:52.979Z,10.70
2022-08-05T11:40:00.700Z,5.97
2022-08-05T11:42:50.396Z,4.15
2022-08-05T11:46:27.133Z,3.63
2022-08-05T11:48:55.110Z,4.90
2022-08-05T11:51:49.762Z,5.03
2022-08-05T11:54:38.361Z,7.80
2022-08-05T11:58:08.610Z,6.13
2022-08-05T12:00:38.989Z,5.07
2022-08-05T12:03:28.966Z,3.75
2022-08-05T12:06:21.191Z,4.40
2022-08-05T12:09:07.748Z,5.72
2022-08-05T12:12:08.666Z,14.25
2022-08-05T12:14:58.316Z,3.63
2022-08-05T12:18:10.077Z,4.60
2022-08-05T12:20:53.365Z,3.70
2022-08-05T12:23:43.130Z,3.55
2022-08-05T12:26:48.118Z,3.53
2022-08-05T12:29:38.029Z,9.25
2022-08-05T12:32:25.950Z,4.05
2022-08-05T12:35:16.928Z,4.00
2022-08-05T12:38:10.988Z,7.35
2022-08-05T12:40:57.582Z,3.88
2022-08-05T12:43:57.643Z,6.65
2022-08-05T12:46:53.384Z,4.18
2022-08-05T12:50:02.319Z,8.35
2022-08-05T12:52:59.958Z,4.03
2022-08-05T12:55:47.991Z,4.75
2022-08-05T12:58:49.717Z,4.33
2022-08-05T13:02:02.673Z,8.57
2022-08-05T13:04:52.555Z,5.30
2022-08-05T13:07:59.517Z,9.98
2022-08-05T13:10:50.510Z,8.30
2022-08-05T13:14:04.539Z,3.72
2022-08-05T13:16:56.562Z,4.00
2022-08-05T13:19:58.380Z,3.85
2022-08-05T13:22:53.034Z,5.03
2022-08-05T13:25:52.207Z,5.18
2022-08-05T13:28:46.423Z,6.40
2022-08-05T13:32:04.171Z,5.15
2022-08-05T13:34:40.910Z,7.63
2022-08-05T13:37:34.460Z,3.92
2022-08-05T13:40:35.577Z,7.68
2022-08-05T13:43:43.310Z,7.97
2022-08-05T13:46:43.873Z,3.80
2022-08-05T13:49:36.153Z,5.18
2022-08-05T13:52:29.944Z,4.03
2022-08-05T13:55:41.774Z,4.72
2022-08-05T13:58:30.531Z,4.22
2022-08-05T14:01:17.477Z,4.25
2022-08-05T14:04:22.219Z,4.15
2022-08-05T14:07:57.062Z,6.40
2022-08-05T14:10:28.929Z,3.80
2022-08-05T14:13:17.031Z,6.47
2022-08-05T14:16:11.197Z,4.32
2022-08-05T14:18:57.205Z,7.05
2022-08-05T14:22:09.122Z,8.40
2022-08-05T14:24:57.458Z,7.57
2022-08-05T14:27:47.349Z,5.57
2022-08-05T14:30:33.746Z,4.43
2022-08-05T14:33:22.879Z,3.85
2022-08-05T14:36:09.404Z,4.18
2022-08-05T14:38:57.040Z,4.18
2022-08-05T14:42:08.739Z,6.75
2022-08-05T14:44:50.768Z,4.28
2022-08-05T14:48:02.890Z,4.25
2022-08-05T14:50:43.441Z,3.75
2022-08-05T14:53:30.651Z,6.65
2022-08-05T14:56:22.772Z,11.15
2022-08-05T14:59:09.111Z,16.30
2022-08-05T15:01:55.454Z,7.75
2022-08-05T15:04:43.887Z,4.63
2022-08-05T15:08:12.251Z,10.38
2022-08-05T15:10:37.686Z,8.00
2022-08-05T15:13:24.329Z,5.20
2022-08-05T15:16:30.341Z,8.35
2022-08-05T15:19:23.722Z,5.38
2022-08-05T15:22:10.400Z,3.80
2022-08-05T15:24:59.193Z,7.93
2022-08-05T15:27:52.116Z,9.00
2022-08-05T15:30:38.371Z,7.90
2022-08-05T15:34:04.588Z,4.68
2022-08-05T15:36:32.387Z,9.35
2022-08-05T15:41:00.503Z,7.90
2022-08-05T15:42:54.786Z,4.25
2022-08-05T15:45:38.131Z,5.38
2022-08-05T15:48:25.038Z,4.22
2022-08-05T15:51:11.324Z,3.67
2022-08-05T15:53:57.608Z,4.38
2022-08-05T15:56:45.414Z,4.85
2022-08-05T15:59:32.128Z,7.90
2022-08-05T16:02:28.689Z,4.38
2022-08-05T16:05:15.023Z,5.53
2022-08-05T16:08:01.335Z,4.40
2022-08-05T16:10:46.871Z,4.00
2022-08-05T16:13:34.799Z,3.53
2022-08-05T16:16:25.401Z,4.28
2022-08-05T16:19:12.085Z,13.82
2022-08-05T16:22:11.236Z,4.80
2022-08-05T16:25:00.815Z,6.88
2022-08-05T16:28:04.852Z,7.43
2022-08-05T16:30:53.072Z,6.10
2022-08-05T16:33:41.525Z,4.13
2022-08-05T16:36:27.838Z,5.13
2022-08-05T16:39:13.891Z,7.47
2022-08-05T16:42:13.972Z,5.28
2022-08-05T16:45:05.893Z,5.82
2022-08-05T16:48:10.407Z,7.80
2022-08-05T16:50:56.756Z,7.97
2022-08-05T16:54:03.263Z,5.00
2022-08-05T16:56:52.223Z,4.60
2022-08-05T17:00:01.434Z,6.13
2022-08-05T17:02:46.012Z,7.95
2022-08-05T17:05:32.499Z,8.32
2022-08-05T17:08:36.251Z,9.13
2022-08-05T17:11:30.893Z,4.93
2022-08-05T17:14:37.386Z,7.15
2022-08-05T17:17:24.305Z,5.65
2022-08-05T17:20:28.793Z,11.93
2022-08-05T17:24:03.450Z,9.38
2022-08-05T17:26:21.126Z,5.40
2022-08-05T17:29:10.089Z,7.78
2022-08-05T17:31:58.167Z,8.30
2022-08-05T17:34:48.077Z,11.60
2022-08-05T17:37:41.523Z,9.45
2022-08-05T17:40:31.632Z,7.65
2022-08-05T17:43:16.950Z,8.15
2022-08-05T17:46:03.451Z,6.95
2022-08-05T17:48:50.373Z,8.40
2022-08-05T17:51:40.444Z,5.90
2022-08-05T17:54:26.517Z,10.68
2022-08-05T17:57:12.516Z,7.20
2022-08-05T18:00:04.747Z,8.63
2022-08-05T18:02:54.541Z,8.70
2022-08-05T18:05:40.278Z,11.43
2022-08-05T18:08:26.260Z,16.48
2022-08-05T18:11:24.817Z,20.55
2022-08-05T18:14:20.503Z,21.58
2022-08-05T18:17:08.336Z,19.80
2022-08-05T18:20:15.663Z,7.70
2022-08-05T18:23:09.534Z,10.65
2022-08-05T18:25:59.520Z,10.35
2022-08-05T18:28:46.431Z,11.27
2022-08-05T18:31:33.027Z,12.00
2022-08-05T18:34:21.922Z,12.35
2022-08-05T18:37:12.507Z,7.10
2022-08-05T18:41:51.185Z,10.93
2022-08-05T18:43:05.227Z,16.85
2022-08-05T18:45:54.729Z,24.58
2022-08-05T18:48:42.121Z,35.30
2022-08-05T18:52:06.400Z,46.53
2022-08-05T18:54:51.943Z,60.50
2022-08-05T18:57:43.642Z,55.67
2022-08-05T19:00:39.570Z,48.78
2022-08-05T19:03:53.309Z,53.20
2022-08-05T19:06:37.429Z,41.75
2022-08-05T19:09:39.379Z,35.45
2022-08-05T19:12:25.901Z,37.88
2022-08-05T19:15:57.788Z,29.05
2022-08-05T19:18:20.752Z,28.75
2022-08-05T19:21:08.351Z,22.92
2022-08-05T19:24:06.997Z,18.38
2022-08-05T19:26:55.613Z,20.02
2022-08-05T19:29:42.841Z,15.40
2022-08-05T19:32:29.383Z,14.38
2022-08-05T19:35:16.360Z,15.13
2022-08-05T19:38:06.247Z,13.10
2022-08-05T19:40:58.463Z,20.27
2022-08-05T19:44:06.192Z,13.00
2022-08-05T19:46:51.707Z,15.63
2022-08-05T19:49:38.664Z,13.43
2022-08-05T19:52:40.552Z,16.60
2022-08-05T19:56:13.767Z,15.35
2022-08-05T19:58:33.055Z,14.23
2022-08-05T20:01:41.123Z,15.60
2022-08-05T20:04:30.335Z,8.50
2022-08-05T20:07:46.886Z,10.20
2022-08-05T20:10:24.478Z,7.90
2022-08-05T20:13:12.289Z,7.43
2022-08-05T20:16:01.899Z,7.55
2022-08-05T20:18:55.348Z,9.23
2022-08-05T20:21:43.429Z,9.20
2022-08-05T20:24:32.501Z,8.32
2022-08-05T20:27:18.402Z,6.68
2022-08-05T20:30:09.628Z,10.27
2022-08-05T20:32:55.844Z,7.10
2022-08-05T20:35:45.269Z,9.18
2022-08-05T20:38:35.623Z,6.55
2022-08-05T20:41:24.270Z,7.90
2022-08-05T20:44:19.387Z,9.18
2022-08-05T20:47:17.354Z,15.82
2022-08-05T20:50:07.462Z,10.05
2022-08-05T20:52:54.078Z,10.07
2022-08-05T20:55:56.291Z,13.15
2022-08-05T20:58:45.552Z,6.60
2022-08-05T21:01:37.203Z,6.80
2022-08-05T21:04:24.310Z,6.88
2022-08-05T21:07:13.962Z,12.98
2022-08-05T21:09:59.288Z,8.75
2022-08-05T21:13:08.756Z,7.95
2022-08-05T21:15:51.511Z,11.88
2022-08-05T21:18:37.704Z,8.73
2022-08-05T21:21:24.452Z,11.75
2022-08-05T21:24:12.612Z,13.77
2022-08-05T21:26:59.015Z,23.15
2022-08-05T21:29:48.472Z,6.40
2022-08-05T21:32:36.652Z,15.30
2022-08-05T21:35:30.405Z,12.35
2022-08-05T21:38:29.986Z,13.30
2022-08-05T21:41:15.778Z,8.10
2022-08-05T21:44:06.467Z,6.45
2022-08-05T21:46:52.148Z,7.30
2022-08-05T21:49:58.908Z,7.13
2022-08-05T21:52:45.913Z,7.82
2022-08-05T21:56:04.270Z,7.80
2022-08-05T21:58:56.929Z,6.28
2022-08-05T22:01:44.865Z,6.82
2022-08-05T22:04:32.446Z,9.13
2022-08-05T22:07:18.323Z,9.13
2022-08-05T22:10:26.731Z,13.13
2022-08-05T22:14:34.118Z,10.88
2022-08-05T22:16:40.484Z,6.97
2022-08-05T22:20:01.157Z,8.43
2022-08-05T22:22:31.246Z,8.32
2022-08-05T22:26:10.246Z,7.32
2022-08-05T22:28:41.838Z,9.10
2022-08-05T22:31:30.194Z,5.07
2022-08-05T22:34:20.204Z,9.57
2022-08-05T22:37:14.076Z,8.57
2022-08-05T22:39:59.824Z,9.50
2022-08-05T22:42:53.256Z,8.30
2022-08-05T22:45:43.841Z,5.85
2022-08-05T22:48:30.696Z,10.68
2022-08-05T22:51:22.683Z,11.50
2022-08-05T22:54:09.115Z,5.47
2022-08-05T22:56:54.528Z,5.85
2022-08-05T22:59:46.086Z,8.73
2022-08-05T23:02:39.874Z,7.50
2022-08-05T23:05:35.944Z,8.50
2022-08-05T23:08:22.635Z,8.88
2022-08-05T23:11:08.679Z,6.43
2022-08-05T23:13:54.862Z,8.90
2022-08-05T23:16:59.282Z,5.50
2022-08-05T23:19:50.858Z,8.27
2022-08-05T23:22:42.106Z,6.65
2022-08-05T23:25:52.671Z,8.82
2022-08-05T23:28:33.373Z,10.85
2022-08-05T23:31:18.656Z,8.02
2022-08-05T23:34:06.768Z,7.80
2022-08-05T23:36:53.028Z,8.55
2022-08-05T23:39:53.611Z,6.15
2022-08-05T23:42:39.577Z,5.15
2022-08-05T23:45:25.456Z,6.40
2022-08-05T23:48:11.691Z,5.47
2022-08-05T23:50:57.113Z,5.47
2022-08-05T23:53:46.505Z,5.15
2022-08-05T23:56:32.207Z,9.68
2022-08-05T23:59:17.693Z,6.57
